Forever One — ZGEG7 — position and weather

sailwx.info

Track history (hours):
 
Tides and Currents Weather Stations Pressure Air Temp Water Temp Dewpoint Dewpoint Depression Visibility Wind Speed Wind Dir Waves Ship Positions

Forever One

Last reported at 2017-Sep-16 01:35 UTC. Time now 2017-Sep-23 00:27 UTC.
Position N 43°43' E 008°43'.

Length 54 m; draft 3 m.

Type: Pleasure craft. MMSI: 319072200.

Date/timePositionNaut miles runAvg speedWind from/ knotsBaromVisibWave heightAir tempDewpointWater temp
2017-Sep-16 01:35N 43°43' E 008°43'112.3
2017-Sep-16 01:30N 43°43' E 008°45'612.4
2017-Sep-16 01:00N 43°46' E 008°52'612.0
2017-Sep-16 00:30N 43°50' E 008°59'612.4
2017-Sep-16 00:00N 43°53' E 009°06'612.1
2017-Sep-15 23:30N 43°59' E 009°08'612.2
2017-Sep-15 23:00N 44°05' E 009°10'612.2
2017-Sep-15 22:30N 44°11' E 009°12'612.5
2017-Sep-15 22:00N 44°17' E 009°14'2 0.0
2017-Sep-14 07:14N 44°18' E 009°13'0 0.2
2017-Sep-14 06:59N 44°18' E 009°13'511.2
2017-Sep-14 06:30N 44°14' E 009°17'713.0
2017-Sep-14 06:00N 44°08' E 009°20'713.0
2017-Sep-14 05:30N 44°02' E 009°24'613.0
2017-Sep-14 05:01N 43°56' E 009°27'612.9
2017-Sep-14 04:30N 43°50' E 009°31'612.9
2017-Sep-14 04:01N 43°44' E 009°34'612.8
2017-Sep-14 03:30N 43°38' E 009°37'612.6
2017-Sep-14 03:00N 43°32' E 009°41'612.5
2017-Sep-14 02:30N 43°26' E 009°44'612.3
2017-Sep-14 02:01N 43°21' E 009°48'612.4
2017-Sep-14 01:30N 43°16' E 009°53'712.4
2017-Sep-14 00:58N 43°10' E 009°58'  
2017-Sep-06 13:59N 40°36' E 014°16'713.7
2017-Sep-06 13:30N 40°43' E 014°15'1 0.3
2017-Sep-06 09:16N 40°41' E 014°15'413.8
2017-Sep-06 09:00N 40°38' E 014°15'  
Track history (hours):
 
Tides and Currents Weather Stations Pressure Air Temp Water Temp Dewpoint Dewpoint Depression Visibility Wind Speed Wind Dir Waves Ship Positions

Forever One

Last reported at 2017-Sep-16 01:35 UTC. Time now 2017-Sep-23 00:27 UTC.
Position N 43°43' E 008°43'.

Length 54 m; draft 3 m.

Type: Pleasure craft. MMSI: 319072200.

Date/timePositionNaut miles runAvg speedWind from/ knotsBaromVisibWave heightAir tempDewpointWater temp
2017-Sep-16 01:35N 43°43' E 008°43'112.3
2017-Sep-16 01:30N 43°43' E 008°45'612.4
2017-Sep-16 01:00N 43°46' E 008°52'612.0
2017-Sep-16 00:30N 43°50' E 008°59'612.4
2017-Sep-16 00:00N 43°53' E 009°06'612.1
2017-Sep-15 23:30N 43°59' E 009°08'612.2
2017-Sep-15 23:00N 44°05' E 009°10'612.2
2017-Sep-15 22:30N 44°11' E 009°12'612.5
2017-Sep-15 22:00N 44°17' E 009°14'2 0.0
2017-Sep-14 07:14N 44°18' E 009°13'0 0.2
2017-Sep-14 06:59N 44°18' E 009°13'511.2
2017-Sep-14 06:30N 44°14' E 009°17'713.0
2017-Sep-14 06:00N 44°08' E 009°20'713.0
2017-Sep-14 05:30N 44°02' E 009°24'613.0
2017-Sep-14 05:01N 43°56' E 009°27'612.9
2017-Sep-14 04:30N 43°50' E 009°31'612.9
2017-Sep-14 04:01N 43°44' E 009°34'612.8
2017-Sep-14 03:30N 43°38' E 009°37'612.6
2017-Sep-14 03:00N 43°32' E 009°41'612.5
2017-Sep-14 02:30N 43°26' E 009°44'612.3
2017-Sep-14 02:01N 43°21' E 009°48'612.4
2017-Sep-14 01:30N 43°16' E 009°53'712.4
2017-Sep-14 00:58N 43°10' E 009°58'  
2017-Sep-06 13:59N 40°36' E 014°16'713.7
2017-Sep-06 13:30N 40°43' E 014°15'1 0.3
2017-Sep-06 09:16N 40°41' E 014°15'413.8
2017-Sep-06 09:00N 40°38' E 014°15'  

Dump ship's entire track history